createdAt,value
2022-11-25T00:01:35.047Z,100.00
2022-11-25T00:06:36.816Z,100.00
2022-11-25T00:11:41.262Z,100.00
2022-11-25T00:16:47.945Z,100.00
2022-11-25T00:21:50.183Z,100.00
2022-11-25T00:26:52.030Z,100.00
2022-11-25T00:31:53.757Z,100.00
2022-11-25T00:36:55.396Z,100.00
2022-11-25T00:41:58.734Z,100.00
2022-11-25T00:47:00.818Z,100.00
2022-11-25T00:52:06.141Z,100.00
2022-11-25T00:57:07.835Z,100.00
2022-11-25T01:02:11.683Z,100.00
2022-11-25T01:07:14.016Z,100.00
2022-11-25T01:12:15.713Z,100.00
2022-11-25T01:17:20.278Z,100.00
2022-11-25T01:22:22.582Z,100.00
2022-11-25T01:27:24.222Z,100.00
2022-11-25T01:32:25.762Z,100.00
2022-11-25T01:37:27.374Z,100.00
2022-11-25T01:42:30.889Z,100.00
2022-11-25T01:47:33.190Z,100.00
2022-11-25T01:52:37.879Z,100.00
2022-11-25T01:58:01.704Z,100.00
2022-11-25T02:03:03.850Z,100.00
2022-11-25T02:08:07.056Z,100.00
2022-11-25T02:13:11.933Z,100.00
2022-11-25T02:18:13.528Z,100.00
2022-11-25T02:23:27.521Z,100.00
2022-11-25T02:28:32.376Z,100.00
2022-11-25T02:33:37.124Z,100.00
2022-11-25T02:38:49.376Z,100.00
2022-11-25T02:43:51.626Z,100.00
2022-11-25T02:49:12.238Z,100.00
2022-11-25T02:54:17.038Z,100.00
2022-11-25T02:59:18.662Z,100.00
2022-11-25T03:04:21.350Z,100.00
2022-11-25T03:09:23.073Z,100.00
2022-11-25T03:14:24.900Z,100.00
2022-11-25T03:19:26.764Z,100.00
2022-11-25T03:24:28.491Z,100.00
2022-11-25T03:29:30.311Z,100.00
2022-11-25T03:34:32.955Z,100.00
2022-11-25T03:39:35.373Z,100.00
2022-11-25T03:44:37.556Z,100.00
2022-11-25T03:49:39.538Z,100.00
2022-11-25T03:54:42.177Z,100.00
2022-11-25T03:59:58.949Z,100.00
2022-11-25T04:05:03.562Z,100.00
2022-11-25T04:10:06.073Z,100.00
2022-11-25T04:15:09.652Z,100.00
2022-11-25T04:20:13.268Z,100.00
2022-11-25T04:25:17.659Z,100.00
2022-11-25T04:30:19.497Z,100.00
2022-11-25T04:35:21.182Z,100.00
2022-11-25T04:40:27.113Z,100.00
2022-11-25T04:46:13.171Z,100.00
2022-11-25T04:51:11.058Z,100.00
2022-11-25T04:56:18.956Z,100.00
2022-11-25T05:01:21.694Z,100.00
2022-11-25T05:06:26.515Z,100.00
2022-11-25T05:11:29.199Z,100.00
2022-11-25T05:16:31.392Z,100.00
2022-11-25T05:21:36.605Z,100.00
2022-11-25T05:26:38.533Z,100.00
2022-11-25T05:31:40.670Z,100.00
2022-11-25T05:36:42.453Z,100.00
2022-11-25T05:41:44.585Z,100.00
2022-11-25T05:46:46.389Z,100.00
2022-11-25T05:51:48.446Z,100.00
2022-11-25T05:56:50.497Z,100.00
2022-11-25T06:02:18.077Z,100.00
2022-11-25T06:07:20.036Z,100.00
2022-11-25T06:12:24.030Z,100.00
2022-11-25T06:17:25.630Z,100.00
2022-11-25T06:22:38.736Z,100.00
2022-11-25T06:28:04.954Z,100.00
2022-11-25T06:33:02.438Z,100.00
2022-11-25T06:38:04.241Z,100.00
2022-11-25T06:43:05.841Z,100.00
2022-11-25T06:48:08.716Z,100.00
2022-11-25T06:53:10.249Z,100.00
2022-11-25T06:58:34.294Z,100.00
2022-11-25T07:03:34.011Z,100.00
2022-11-25T07:08:35.747Z,100.00
2022-11-25T07:13:37.487Z,100.00
2022-11-25T07:18:39.919Z,100.00
2022-11-25T07:23:44.136Z,100.00
2022-11-25T07:28:45.947Z,100.00
2022-11-25T07:33:47.803Z,100.00
2022-11-25T07:38:49.731Z,100.00
2022-11-25T07:43:54.095Z,100.00
2022-11-25T07:48:59.597Z,100.00
2022-11-25T07:54:03.443Z,100.00
2022-11-25T07:59:08.515Z,100.00
2022-11-25T08:04:18.096Z,100.00
2022-11-25T08:09:23.831Z,100.00
2022-11-25T08:14:25.640Z,100.00
2022-11-25T08:19:31.415Z,100.00
2022-11-25T08:24:33.243Z,100.00
2022-11-25T08:29:35.165Z,100.00
2022-11-25T08:34:37.154Z,100.00
2022-11-25T08:39:55.736Z,100.00
2022-11-25T08:44:57.774Z,100.00
2022-11-25T08:49:59.432Z,100.00
2022-11-25T08:55:01.038Z,100.00
2022-11-25T09:00:04.994Z,100.00
2022-11-25T09:05:06.730Z,100.00
2022-11-25T09:10:13.653Z,100.00
2022-11-25T09:15:16.086Z,100.00
2022-11-25T09:20:17.790Z,100.00
2022-11-25T09:25:21.069Z,100.00
2022-11-25T09:30:24.183Z,100.00
2022-11-25T09:35:26.543Z,100.00
2022-11-25T09:40:44.466Z,100.00
2022-11-25T09:45:52.113Z,100.00
2022-11-25T09:51:24.522Z,100.00
2022-11-25T09:56:42.018Z,100.00
2022-11-25T10:01:59.617Z,100.00
2022-11-25T10:07:03.899Z,100.00
2022-11-25T10:12:22.646Z,100.00
2022-11-25T10:17:42.067Z,100.00
2022-11-25T10:22:46.069Z,100.00
2022-11-25T10:28:16.752Z,100.00
2022-11-25T10:33:22.559Z,100.00
2022-11-25T10:38:50.225Z,100.00
2022-11-25T10:43:51.919Z,100.00
2022-11-25T10:48:56.194Z,100.00
2022-11-25T10:54:22.741Z,100.00
2022-11-25T10:59:39.890Z,100.00
2022-11-25T11:05:15.305Z,100.00
2022-11-25T11:10:22.434Z,99.08
2022-11-25T11:15:31.434Z,100.00
2022-11-25T11:20:34.192Z,100.00
2022-11-25T11:25:39.148Z,100.00
2022-11-25T11:30:55.693Z,100.00
2022-11-25T11:36:12.366Z,100.00
2022-11-25T11:41:19.476Z,99.25
2022-11-25T11:46:43.010Z,97.14
2022-11-25T11:51:44.582Z,97.02
2022-11-25T11:57:12.365Z,100.00
2022-11-25T12:02:29.280Z,100.00
2022-11-25T12:07:52.728Z,100.00
2022-11-25T12:13:15.357Z,100.00
2022-11-25T12:18:35.476Z,100.00
2022-11-25T12:23:43.089Z,100.00
2022-11-25T12:29:01.079Z,100.00
2022-11-25T12:34:11.981Z,98.40
2022-11-25T12:39:37.812Z,94.69
2022-11-25T12:45:02.754Z,96.14
2022-11-25T12:50:04.998Z,95.53
2022-11-25T12:55:09.569Z,94.65
2022-11-25T13:00:42.249Z,93.00
2022-11-25T13:05:53.164Z,93.89
2022-11-25T13:11:32.767Z,92.13
2022-11-25T13:16:35.528Z,94.46
2022-11-25T13:21:54.381Z,95.41
2022-11-25T13:26:56.003Z,96.19
2022-11-25T13:32:23.600Z,96.17
2022-11-25T13:37:38.691Z,97.42
2022-11-25T13:42:44.581Z,97.17
2022-11-25T13:47:48.851Z,95.76
2022-11-25T13:53:07.352Z,92.48
2022-11-25T13:58:11.979Z,93.07
2022-11-25T14:03:19.636Z,95.03
2022-11-25T14:08:45.157Z,95.55
2022-11-25T14:14:11.716Z,96.70
2022-11-25T14:19:50.831Z,99.60
2022-11-25T14:24:51.442Z,98.81
2022-11-25T14:29:59.176Z,99.46
2022-11-25T14:35:10.113Z,99.10
2022-11-25T14:40:36.460Z,99.07
2022-11-25T14:45:38.364Z,100.00
2022-11-25T14:50:41.532Z,100.00
2022-11-25T14:55:48.631Z,100.00
2022-11-25T15:01:01.178Z,100.00
2022-11-25T15:06:06.598Z,100.00
2022-11-25T15:11:34.945Z,100.00
2022-11-25T15:16:42.152Z,100.00
2022-11-25T15:22:20.674Z,100.00
2022-11-25T15:27:22.399Z,100.00
2022-11-25T15:32:33.887Z,100.00
2022-11-25T15:37:37.064Z,100.00
2022-11-25T15:42:42.374Z,100.00
2022-11-25T15:47:45.125Z,100.00
2022-11-25T15:52:52.507Z,100.00
2022-11-25T15:57:56.307Z,100.00
2022-11-25T16:02:58.595Z,100.00
2022-11-25T16:08:16.619Z,100.00
2022-11-25T16:13:22.373Z,100.00
2022-11-25T16:18:40.410Z,100.00
2022-11-25T16:23:48.443Z,100.00
2022-11-25T16:28:53.489Z,100.00
2022-11-25T16:34:17.231Z,100.00
2022-11-25T16:39:19.106Z,100.00
2022-11-25T16:44:23.500Z,100.00
2022-11-25T16:49:25.536Z,100.00
2022-11-25T16:54:27.100Z,100.00
2022-11-25T16:59:42.598Z,100.00
2022-11-25T17:04:44.820Z,100.00
2022-11-25T17:09:46.718Z,100.00
2022-11-25T17:14:49.081Z,100.00
2022-11-25T17:19:51.400Z,100.00
2022-11-25T17:24:53.042Z,100.00
2022-11-25T17:29:57.278Z,100.00
2022-11-25T17:34:59.454Z,100.00
2022-11-25T17:40:01.495Z,100.00
2022-11-25T17:45:03.363Z,100.00
2022-11-25T17:50:22.659Z,100.00
2022-11-25T17:55:24.296Z,100.00
2022-11-25T18:00:25.943Z,100.00
2022-11-25T18:05:27.832Z,100.00
2022-11-25T18:10:29.593Z,100.00
2022-11-25T18:15:32.885Z,100.00
2022-11-25T18:20:34.764Z,100.00
2022-11-25T18:25:39.095Z,100.00
2022-11-25T18:30:40.794Z,100.00
2022-11-25T18:35:44.374Z,100.00
2022-11-25T18:40:51.880Z,100.00
2022-11-25T18:45:55.196Z,100.00
2022-11-25T18:50:57.101Z,100.00
2022-11-25T18:55:59.191Z,100.00
2022-11-25T19:01:11.031Z,100.00
2022-11-25T19:06:13.748Z,100.00
2022-11-25T19:11:49.526Z,100.00
2022-11-25T19:16:51.209Z,100.00
2022-11-25T19:21:52.874Z,100.00
2022-11-25T19:26:57.050Z,100.00
2022-11-25T19:32:00.717Z,100.00
2022-11-25T19:37:02.378Z,100.00
2022-11-25T19:42:03.979Z,100.00
2022-11-25T19:47:15.098Z,100.00
2022-11-25T19:52:30.984Z,100.00
2022-11-25T19:57:32.571Z,100.00
2022-11-25T20:02:34.287Z,100.00
2022-11-25T20:07:36.449Z,100.00
2022-11-25T20:12:38.135Z,100.00
2022-11-25T20:17:44.387Z,100.00
2022-11-25T20:23:00.534Z,100.00
2022-11-25T20:28:02.141Z,100.00
2022-11-25T20:33:03.824Z,100.00
2022-11-25T20:38:05.866Z,100.00
2022-11-25T20:43:20.269Z,100.00
2022-11-25T20:48:22.461Z,100.00
2022-11-25T20:53:24.071Z,100.00
2022-11-25T20:58:28.554Z,100.00
2022-11-25T21:03:30.218Z,100.00
2022-11-25T21:08:31.802Z,100.00
2022-11-25T21:13:33.487Z,100.00
2022-11-25T21:18:35.254Z,100.00
2022-11-25T21:23:37.841Z,100.00
2022-11-25T21:28:42.497Z,100.00
2022-11-25T21:33:46.233Z,100.00
2022-11-25T21:38:51.237Z,100.00
2022-11-25T21:43:52.931Z,100.00
2022-11-25T21:48:54.664Z,100.00
2022-11-25T21:53:56.370Z,100.00
2022-11-25T21:59:00.554Z,100.00
2022-11-25T22:04:02.121Z,100.00
2022-11-25T22:09:03.875Z,100.00
2022-11-25T22:14:12.806Z,100.00
2022-11-25T22:19:23.287Z,100.00
2022-11-25T22:24:25.171Z,100.00
2022-11-25T22:29:32.861Z,100.00
2022-11-25T22:34:34.496Z,100.00
2022-11-25T22:39:36.297Z,100.00
2022-11-25T22:44:42.211Z,100.00
2022-11-25T22:49:47.084Z,100.00
2022-11-25T22:54:49.331Z,100.00
2022-11-25T22:59:51.019Z,100.00
2022-11-25T23:04:55.177Z,100.00
2022-11-25T23:09:56.842Z,100.00
2022-11-25T23:14:58.397Z,100.00
2022-11-25T23:19:59.983Z,100.00
2022-11-25T23:25:02.141Z,100.00
2022-11-25T23:30:03.939Z,100.00
2022-11-25T23:35:06.084Z,100.00
2022-11-25T23:40:17.322Z,100.00
2022-11-25T23:45:21.651Z,100.00
2022-11-25T23:50:32.816Z,100.00
2022-11-25T23:55:37.219Z,100.00
